Time;durP1;ratioP1;P1;durP2;ratioP2;P2;SDS_P1;SDS_P2;PMS_P1;PMS_P2;Temp;Humidity;BMP_temperature;BMP_pressure;BME280_temperature;BME280_humidity;BME280_pressure;Samples;Min_cycle;Max_cycle;Signal;HPM_P1;HPM_P2
2022/06/16 00:01:58;;;;;;;5.00;1.10;;;17.10;82.10;;;;;;5013537;28;20041;-85
2022/06/16 00:04:25;;;;;;;4.53;0.95;;;17.10;82.30;;;;;;5013698;28;20413;-84
2022/06/16 00:06:51;;;;;;;7.25;1.58;;;17.00;82.40;;;;;;5014378;28;20398;-85
2022/06/16 00:09:16;;;;;;;4.72;1.27;;;17.00;82.50;;;;;;5014184;28;20521;-85
2022/06/16 00:11:42;;;;;;;5.82;0.90;;;17.00;82.70;;;;;;5014308;28;20029;-84
2022/06/16 00:14:08;;;;;;;4.38;0.90;;;17.00;82.80;;;;;;5029692;28;20026;-85
2022/06/16 00:16:33;;;;;;;2.38;0.90;;;16.90;82.90;;;;;;5013046;28;20372;-85
2022/06/16 00:18:59;;;;;;;2.67;0.80;;;16.90;83.20;;;;;;5013988;28;20057;-85
2022/06/16 00:21:24;;;;;;;4.65;0.93;;;16.90;83.30;;;;;;5012976;28;20121;-84
2022/06/16 00:23:50;;;;;;;4.65;0.98;;;16.90;83.50;;;;;;5029135;28;20080;-85
2022/06/16 00:26:22;;;;;;;4.85;1.02;;;16.90;83.60;;;;;;5029526;28;20017;-85
2022/06/16 00:28:48;;;;;;;2.47;0.90;;;16.80;83.50;;;;;;5016053;28;20061;-84
2022/06/16 00:31:16;;;;;;;3.85;1.02;;;16.80;83.80;;;;;;5012659;28;20034;-85
2022/06/16 00:33:42;;;;;;;4.00;0.82;;;16.80;84.10;;;;;;5012837;28;20022;-84
2022/06/16 00:36:08;;;;;;;3.17;0.98;;;16.70;84.20;;;;;;5012834;28;20064;-84
2022/06/16 00:38:34;;;;;;;5.13;1.52;;;16.70;84.40;;;;;;5013159;28;20469;-84
2022/06/16 00:40:59;;;;;;;5.65;1.73;;;16.60;84.50;;;;;;5012898;28;20017;-85
2022/06/16 00:43:25;;;;;;;3.88;0.90;;;16.50;84.70;;;;;;5012708;28;20453;-84
2022/06/16 00:46:03;;;;;;;3.42;1.33;;;16.50;85.00;;;;;;5012686;28;20026;-85
2022/06/16 00:48:47;;;;;;;2.78;1.00;;;16.40;85.20;;;;;;5013984;28;20081;-85
2022/06/16 00:51:33;;;;;;;3.88;1.08;;;16.40;85.40;;;;;;5012682;28;20184;-84
2022/06/16 00:54:13;;;;;;;3.33;1.35;;;16.30;85.50;;;;;;5013754;28;20026;-84
2022/06/16 00:56:39;;;;;;;5.35;1.15;;;16.20;85.70;;;;;;5012764;28;20181;-85
2022/06/16 00:59:06;;;;;;;4.03;1.08;;;16.10;85.90;;;;;;5029214;28;20120;-85
2022/06/16 01:01:34;;;;;;;4.18;1.50;;;16.10;86.10;;;;;;5016283;28;20470;-85
2022/06/16 01:06:45;;;;;;;4.00;1.20;;;15.90;86.80;;;;;;5017685;28;20087;-85
2022/06/16 01:09:15;;;;;;;3.58;1.00;;;15.90;87.00;;;;;;5016505;28;20125;-85
2022/06/16 01:14:58;;;;;;;5.72;1.33;;;15.80;87.60;;;;;;5017597;28;20509;-85
2022/06/16 01:17:50;;;;;;;4.63;1.25;;;15.60;87.80;;;;;;5032817;28;20034;-85
2022/06/16 01:20:52;;;;;;;2.40;1.17;;;15.50;88.10;;;;;;5017437;28;20105;-86
2022/06/16 01:23:46;;;;;;;4.78;1.10;;;15.50;88.50;;;;;;5017346;28;20493;-85
2022/06/16 01:26:52;;;;;;;3.90;0.98;;;15.40;88.90;;;;;;5017208;28;20029;-84
2022/06/16 01:29:27;;;;;;;3.58;1.00;;;15.40;89.10;;;;;;5017118;28;20064;-85
2022/06/16 01:31:55;;;;;;;5.38;1.65;;;15.30;89.50;;;;;;5017290;28;20077;-85
2022/06/16 01:34:41;;;;;;;5.18;1.50;;;15.30;90.00;;;;;;5018551;28;20037;-87
2022/06/16 01:37:24;;;;;;;5.50;1.25;;;15.20;90.20;;;;;;5036982;28;20036;-85
2022/06/16 01:40:09;;;;;;;4.53;1.40;;;15.10;90.40;;;;;;5019126;28;20030;-85
2022/06/16 01:43:01;;;;;;;5.15;1.27;;;15.00;90.60;;;;;;5035732;28;20375;-85
2022/06/16 01:45:37;;;;;;;5.45;1.30;;;15.00;90.90;;;;;;5018963;28;20025;-85
2022/06/16 01:48:07;;;;;;;5.75;1.33;;;14.90;91.20;;;;;;5019402;28;20068;-85
2022/06/16 01:50:40;;;;;;;6.07;1.60;;;14.90;91.40;;;;;;5018933;28;20029;-85
2022/06/16 01:53:11;;;;;;;4.18;1.48;;;14.80;91.70;;;;;;5019054;28;20025;-85
2022/06/16 01:55:45;;;;;;;5.63;1.50;;;14.80;92.00;;;;;;5019163;28;20433;-85
2022/06/16 01:58:16;;;;;;;2.88;1.00;;;14.70;92.20;;;;;;5019044;28;20040;-85
2022/06/16 02:00:44;;;;;;;5.38;1.83;;;14.70;92.60;;;;;;5018698;28;20071;-85
2022/06/16 02:03:13;;;;;;;4.43;1.27;;;14.60;93.00;;;;;;5018753;28;20026;-85
2022/06/16 02:05:47;;;;;;;5.20;1.67;;;14.60;93.30;;;;;;5018846;28;20477;-85
2022/06/16 02:08:22;;;;;;;7.10;1.48;;;14.60;93.70;;;;;;5018867;28;20037;-85
2022/06/16 02:11:02;;;;;;;4.25;1.30;;;14.50;94.00;;;;;;5018170;28;20056;-85
2022/06/16 02:13:34;;;;;;;2.70;1.30;;;14.40;94.40;;;;;;5018566;28;20025;-85
2022/06/16 02:16:33;;;;;;;4.60;1.60;;;14.30;94.90;;;;;;5018442;28;20025;-85
2022/06/16 02:19:01;;;;;;;4.18;1.35;;;14.20;95.30;;;;;;4986960;28;20105;-85
2022/06/16 02:21:34;;;;;;;4.93;1.58;;;14.20;95.80;;;;;;5018510;28;20116;-85
2022/06/16 02:24:02;;;;;;;6.47;2.03;;;14.10;96.20;;;;;;5034784;28;20034;-85
2022/06/16 02:26:28;;;;;;;7.25;1.42;;;14.00;96.70;;;;;;5021357;28;20013;-85
2022/06/16 02:28:57;;;;;;;5.00;1.30;;;13.90;97.10;;;;;;5038355;28;20025;-85
2022/06/16 02:31:44;;;;;;;6.30;1.80;;;13.90;97.50;;;;;;5037975;28;20182;-84
2022/06/16 02:34:44;;;;;;;6.90;1.60;;;13.80;97.80;;;;;;5055544;28;20053;-85
2022/06/16 02:37:17;;;;;;;3.70;1.23;;;13.80;98.00;;;;;;5021308;28;20053;-85
2022/06/16 02:39:59;;;;;;;3.97;1.58;;;13.70;98.30;;;;;;5054549;28;20033;-86
2022/06/16 02:42:55;;;;;;;5.22;1.58;;;13.60;98.50;;;;;;5037934;28;20427;-84
2022/06/16 02:45:26;;;;;;;4.75;1.85;;;13.60;98.60;;;;;;5037814;28;20020;-85
2022/06/16 02:48:18;;;;;;;4.93;1.52;;;13.50;99.00;;;;;;5037962;28;20447;-84
2022/06/16 02:51:06;;;;;;;4.35;1.73;;;13.50;99.10;;;;;;5015247;28;20033;-87
2022/06/16 02:56:35;;;;;;;2.97;1.83;;;13.30;99.60;;;;;;5055444;28;20037;-85
2022/06/16 02:59:38;;;;;;;3.70;1.40;;;13.20;99.90;;;;;;5037421;28;20036;-85
2022/06/16 03:02:08;;;;;;;6.30;1.63;;;13.10;99.90;;;;;;4974719;28;20212;-88
2022/06/16 03:04:37;;;;;;;5.57;2.20;;;13.10;99.90;;;;;;5023456;28;20037;-87
2022/06/16 03:07:03;;;;;;;4.45;1.70;;;13.00;99.90;;;;;;5037322;28;20021;-85
2022/06/16 03:09:30;;;;;;;4.93;2.38;;;12.90;99.90;;;;;;5037454;28;20033;-85
2022/06/16 03:11:55;;;;;;;8.45;2.08;;;12.90;99.90;;;;;;5037277;28;20516;-84
2022/06/16 03:14:21;;;;;;;5.22;2.25;;;12.80;99.90;;;;;;5037320;28;20037;-85
2022/06/16 03:16:46;;;;;;;5.07;2.17;;;12.70;99.90;;;;;;5054678;28;20033;-85
2022/06/16 03:19:12;;;;;;;4.20;2.00;;;12.70;99.90;;;;;;5037034;28;20091;-85
2022/06/16 03:21:37;;;;;;;6.85;2.38;;;12.60;99.90;;;;;;5037205;28;20029;-85
2022/06/16 03:24:03;;;;;;;6.80;2.45;;;12.50;99.90;;;;;;5036107;28;20025;-87
2022/06/16 03:26:29;;;;;;;8.90;2.25;;;12.50;99.90;;;;;;5022115;28;20486;-85
2022/06/16 03:28:55;;;;;;;4.90;2.28;;;12.50;99.90;;;;;;5017546;28;20025;-85
2022/06/16 03:31:21;;;;;;;5.25;2.85;;;12.40;99.90;;;;;;5017416;28;20559;-85
2022/06/16 03:33:46;;;;;;;5.93;2.67;;;12.40;99.90;;;;;;5016999;28;20025;-85
2022/06/16 03:36:12;;;;;;;7.90;3.28;;;12.30;99.90;;;;;;5016692;28;20049;-85
2022/06/16 03:38:42;;;;;;;6.10;1.98;;;12.30;99.90;;;;;;5034668;28;20362;-85
2022/06/16 03:41:08;;;;;;;6.30;2.50;;;12.30;99.90;;;;;;5017176;28;20033;-85
2022/06/16 03:43:33;;;;;;;5.43;2.30;;;12.20;99.90;;;;;;5017174;28;20021;-85
2022/06/16 03:45:59;;;;;;;5.88;2.60;;;12.20;99.90;;;;;;5017005;28;20544;-88
2022/06/16 03:48:24;;;;;;;6.82;3.22;;;12.20;99.90;;;;;;5033357;28;20036;-88
2022/06/16 03:50:50;;;;;;;8.98;2.58;;;12.20;99.90;;;;;;5016928;28;20025;-85
2022/06/16 03:53:16;;;;;;;4.95;2.25;;;12.20;99.90;;;;;;5017000;28;20033;-85
2022/06/16 03:55:41;;;;;;;7.32;2.72;;;12.20;99.90;;;;;;5016804;28;20017;-85
2022/06/16 03:58:08;;;;;;;5.93;2.75;;;12.20;99.90;;;;;;5016692;28;20040;-88
2022/06/16 04:00:33;;;;;;;9.55;2.80;;;12.20;99.90;;;;;;5016705;28;20532;-85
2022/06/16 04:05:44;;;;;;;9.00;3.15;;;12.10;99.90;;;;;;5034539;28;20032;-88
2022/06/16 04:08:12;;;;;;;5.47;2.97;;;12.20;99.90;;;;;;5016562;28;20026;-88
2022/06/16 04:10:38;;;;;;;7.18;3.00;;;12.20;99.90;;;;;;5016872;28;20108;-88
2022/06/16 04:13:03;;;;;;;7.32;3.42;;;12.20;99.90;;;;;;5016454;28;20048;-88
2022/06/16 04:15:29;;;;;;;7.38;3.60;;;12.20;99.90;;;;;;5016373;28;20057;-88
2022/06/16 04:17:55;;;;;;;5.88;3.30;;;12.20;99.90;;;;;;5016270;28;20072;-88
2022/06/16 04:20:21;;;;;;;6.78;3.33;;;12.30;99.90;;;;;;5016541;28;20025;-88
2022/06/16 04:22:50;;;;;;;12.07;4.53;;;12.30;99.90;;;;;;5016448;28;20029;-86
2022/06/16 04:25:17;;;;;;;8.38;2.85;;;12.30;99.90;;;;;;5032278;28;20493;-86
2022/06/16 04:27:44;;;;;;;8.40;2.65;;;12.30;99.90;;;;;;5036114;28;20040;-88
2022/06/16 04:30:10;;;;;;;6.78;2.85;;;12.30;99.90;;;;;;5036266;28;20032;-85
2022/06/16 04:32:36;;;;;;;9.13;3.42;;;12.40;99.90;;;;;;5035977;28;20025;-85
2022/06/16 04:35:01;;;;;;;4.93;2.60;;;12.40;99.90;;;;;;5035496;28;20068;-85
2022/06/16 04:37:27;;;;;;;6.60;2.60;;;12.50;99.90;;;;;;5035986;28;20048;-85
2022/06/16 04:39:53;;;;;;;7.07;2.67;;;12.50;99.90;;;;;;5036078;28;20381;-85
2022/06/16 04:42:20;;;;;;;6.45;2.72;;;12.50;99.90;;;;;;5036126;28;20036;-85
2022/06/16 04:44:45;;;;;;;5.55;2.92;;;12.70;99.90;;;;;;5035723;28;20033;-85
2022/06/16 04:47:11;;;;;;;7.40;2.60;;;12.70;99.90;;;;;;5035857;28;20025;-85
2022/06/16 04:49:37;;;;;;;5.25;3.00;;;12.70;99.90;;;;;;5035908;28;20021;-86
2022/06/16 04:52:04;;;;;;;4.72;2.60;;;12.90;99.90;;;;;;5035980;28;20473;-85
2022/06/16 04:54:29;;;;;;;5.47;2.65;;;13.00;99.90;;;;;;5035837;28;20120;-85
2022/06/16 04:56:55;;;;;;;7.13;2.60;;;13.30;99.90;;;;;;5035657;28;20064;-85
2022/06/16 04:59:21;;;;;;;5.13;2.75;;;13.80;99.90;;;;;;5035831;28;20029;-85
2022/06/16 05:01:46;;;;;;;4.72;1.80;;;14.10;99.90;;;;;;5035554;28;20025;-85
2022/06/16 05:04:12;;;;;;;3.53;2.30;;;14.40;99.90;;;;;;5035952;28;20021;-86
2022/06/16 05:06:37;;;;;;;7.43;2.58;;;14.60;99.90;;;;;;5035521;28;20021;-85
2022/06/16 05:09:03;;;;;;;4.68;2.20;;;15.10;99.90;;;;;;5035668;28;20116;-86
2022/06/16 05:11:29;;;;;;;4.00;1.70;;;15.50;99.90;;;;;;5035736;28;20469;-85
2022/06/16 05:13:54;;;;;;;7.35;2.55;;;15.90;99.90;;;;;;5053243;28;20067;-85
2022/06/16 05:16:20;;;;;;;4.95;2.35;;;16.30;99.90;;;;;;5035709;28;20041;-86
2022/06/16 05:18:45;;;;;;;3.20;1.70;;;16.60;99.90;;;;;;5035625;28;20539;-85
2022/06/16 05:21:13;;;;;;;6.57;2.17;;;16.90;99.90;;;;;;5053752;28;20500;-85
2022/06/16 05:23:40;;;;;;;4.60;1.83;;;17.20;99.90;;;;;;5039306;28;20390;-85
2022/06/16 05:26:06;;;;;;;3.83;1.80;;;17.50;99.90;;;;;;5033246;28;20109;-85
2022/06/16 05:28:32;;;;;;;5.72;1.95;;;17.80;99.90;;;;;;5015747;28;20079;-85
2022/06/16 05:30:58;;;;;;;6.43;1.88;;;18.10;99.80;;;;;;5033187;28;20044;-85
2022/06/16 05:33:24;;;;;;;4.47;1.90;;;18.50;99.00;;;;;;5033213;28;20081;-86
2022/06/16 05:36:01;;;;;;;12.50;3.05;;;18.70;98.20;;;;;;5012369;28;20270;-86
2022/06/16 05:38:27;;;;;;;5.13;1.88;;;19.00;97.30;;;;;;5013506;28;20034;-85
2022/06/16 05:41:02;;;;;;;4.60;1.85;;;19.20;96.40;;;;;;5012398;28;20080;-85
2022/06/16 05:43:29;;;;;;;6.32;1.40;;;19.40;95.70;;;;;;5012220;28;20030;-84
2022/06/16 05:45:55;;;;;;;6.00;1.60;;;19.40;95.10;;;;;;5013209;28;20095;-85
2022/06/16 05:48:21;;;;;;;6.32;1.65;;;19.50;94.10;;;;;;5016796;28;20116;-85
2022/06/16 05:50:46;;;;;;;6.15;1.85;;;19.50;93.20;;;;;;5017074;28;20022;-85
2022/06/16 05:53:12;;;;;;;6.47;1.80;;;19.40;92.40;;;;;;5015774;28;20041;-86
2022/06/16 05:55:38;;;;;;;5.35;2.22;;;19.30;91.90;;;;;;5015623;28;20022;-85
2022/06/16 05:58:03;;;;;;;4.97;1.60;;;19.20;91.60;;;;;;5015600;28;20084;-85
2022/06/16 06:00:29;;;;;;;3.30;1.58;;;19.10;91.20;;;;;;5015406;28;20029;-85
2022/06/16 06:02:59;;;;;;;5.00;1.27;;;19.00;90.70;;;;;;5016513;28;20059;-85
2022/06/16 06:05:26;;;;;;;9.05;2.55;;;18.90;90.30;;;;;;5015503;28;20022;-85
2022/06/16 06:16:25;;;;;;;3.38;0.75;;;18.50;89.80;;;;;;5017136;28;20112;-85
2022/06/16 06:18:56;;;;;;;3.22;0.70;;;18.50;89.30;;;;;;5015380;28;20030;-85
2022/06/16 06:24:09;;;;;;;2.88;0.90;;;18.40;88.30;;;;;;5016525;28;20113;-85
2022/06/16 06:26:35;;;;;;;4.15;0.70;;;18.30;88.30;;;;;;5015278;28;20116;-84
2022/06/16 06:29:01;;;;;;;2.85;0.82;;;18.30;88.30;;;;;;5016119;28;20069;-85
2022/06/16 06:31:27;;;;;;;5.28;0.80;;;18.40;88.00;;;;;;5031555;28;20029;-84
2022/06/16 06:33:52;;;;;;;3.45;0.70;;;18.40;87.90;;;;;;5014768;28;20026;-85
2022/06/16 06:36:18;;;;;;;2.67;0.70;;;18.50;88.50;;;;;;5014611;28;20478;-85
2022/06/16 06:38:43;;;;;;;2.42;0.80;;;18.50;88.30;;;;;;5014744;28;20034;-84
2022/06/16 06:41:09;;;;;;;2.42;0.52;;;18.60;88.00;;;;;;5014867;28;20026;-85
2022/06/16 06:43:34;;;;;;;3.50;0.55;;;18.60;87.80;;;;;;5014752;28;20026;-84
2022/06/16 06:46:00;;;;;;;1.75;0.55;;;18.60;86.80;;;;;;5014953;28;20025;-84
2022/06/16 06:48:25;;;;;;;2.13;0.45;;;18.60;86.30;;;;;;5014484;28;20117;-85
2022/06/16 06:50:51;;;;;;;5.00;0.73;;;18.70;85.00;;;;;;5014713;28;20109;-85
2022/06/16 06:53:17;;;;;;;4.25;0.82;;;18.60;84.60;;;;;;5014560;28;20025;-86
2022/06/16 06:55:46;;;;;;;1.75;0.43;;;18.60;84.00;;;;;;5014506;28;20025;-85
2022/06/16 06:58:22;;;;;;;2.90;0.75;;;18.60;83.90;;;;;;5014353;28;20041;-85
2022/06/16 07:00:53;;;;;;;1.98;0.30;;;18.60;84.00;;;;;;5014462;28;20025;-85
2022/06/16 07:03:20;;;;;;;2.40;0.50;;;18.60;84.10;;;;;;5014430;28;20030;-85
2022/06/16 07:05:46;;;;;;;1.70;0.40;;;18.80;84.00;;;;;;5014284;28;20084;-84
2022/06/16 07:08:12;;;;;;;3.88;0.50;;;18.80;83.80;;;;;;5014112;28;20049;-84
2022/06/16 07:10:39;;;;;;;3.00;0.40;;;18.80;83.60;;;;;;5014126;28;20462;-84
2022/06/16 07:13:04;;;;;;;2.25;0.60;;;18.80;83.70;;;;;;5013968;28;20482;-84
2022/06/16 07:15:30;;;;;;;2.70;0.30;;;18.80;83.50;;;;;;5014251;28;20089;-85
2022/06/16 07:17:56;;;;;;;2.83;0.30;;;18.90;83.30;;;;;;5013954;28;20062;-85
2022/06/16 07:20:21;;;;;;;3.65;0.47;;;18.90;83.00;;;;;;5014117;28;20021;-85
2022/06/16 07:22:47;;;;;;;4.82;0.50;;;19.00;83.00;;;;;;5013917;28;20113;-85
2022/06/16 07:25:14;;;;;;;1.75;0.40;;;19.10;83.00;;;;;;5013934;28;20029;-84
2022/06/16 07:27:41;;;;;;;3.42;0.43;;;19.20;82.20;;;;;;5014080;28;20186;-85
2022/06/16 07:30:13;;;;;;;2.38;0.40;;;19.20;81.40;;;;;;5013865;28;20022;-83
2022/06/16 07:32:40;;;;;;;2.95;0.50;;;19.20;80.80;;;;;;5015041;28;20030;-84
2022/06/16 07:35:07;;;;;;;2.80;0.40;;;19.20;80.70;;;;;;5013712;28;20045;-84
2022/06/16 07:37:32;;;;;;;2.30;0.40;;;19.30;80.20;;;;;;5013813;28;20140;-84
2022/06/16 07:39:58;;;;;;;2.80;0.40;;;19.40;79.40;;;;;;5013563;28;20050;-85
2022/06/16 07:42:23;;;;;;;2.13;0.30;;;19.50;78.50;;;;;;5013536;28;20084;-85
2022/06/16 07:44:49;;;;;;;3.03;0.50;;;19.60;77.70;;;;;;5030568;28;20022;-85
2022/06/16 07:47:14;;;;;;;1.55;0.30;;;19.60;77.20;;;;;;5013697;28;20037;-84
2022/06/16 07:49:40;;;;;;;2.92;0.40;;;19.70;77.30;;;;;;5014677;28;20026;-85
2022/06/16 07:52:06;;;;;;;2.70;0.40;;;19.80;76.90;;;;;;5013591;28;20026;-85
2022/06/16 07:54:31;;;;;;;1.58;0.22;;;19.90;76.40;;;;;;5013489;28;20030;-85
2022/06/16 07:56:57;;;;;;;1.75;0.28;;;20.00;75.60;;;;;;5013591;28;20504;-84
2022/06/16 07:59:23;;;;;;;3.55;0.50;;;20.10;74.70;;;;;;5013400;28;20029;-84
2022/06/16 08:01:49;;;;;;;1.73;0.30;;;20.20;74.50;;;;;;5013181;28;20113;-85
2022/06/16 08:04:15;;;;;;;2.13;0.50;;;20.20;73.60;;;;;;5013314;28;20121;-84
2022/06/16 08:06:41;;;;;;;2.60;0.30;;;20.30;72.80;;;;;;5013154;28;20080;-84
2022/06/16 08:09:08;;;;;;;4.00;0.40;;;20.30;72.40;;;;;;5012798;28;20029;-84
2022/06/16 08:14:18;;;;;;;1.85;0.30;;;20.40;71.30;;;;;;5014568;28;20040;-84
2022/06/16 08:16:44;;;;;;;3.30;0.25;;;20.40;70.40;;;;;;5012967;28;20057;-84
2022/06/16 08:19:10;;;;;;;1.17;0.30;;;20.30;69.90;;;;;;5023082;28;20465;-84
2022/06/16 08:21:36;;;;;;;3.35;0.30;;;20.30;70.00;;;;;;5032714;28;20018;-84
2022/06/16 08:24:02;;;;;;;2.72;0.30;;;20.40;70.30;;;;;;5032655;28;20025;-84
2022/06/16 08:26:29;;;;;;;0.98;0.30;;;20.40;69.80;;;;;;5032566;28;20120;-84
2022/06/16 08:28:57;;;;;;;1.83;0.30;;;20.60;69.10;;;;;;5032465;28;20030;-84
2022/06/16 08:31:23;;;;;;;2.22;0.40;;;20.60;68.90;;;;;;5032956;28;20080;-84
2022/06/16 08:33:51;;;;;;;1.48;0.40;;;20.70;69.00;;;;;;5032589;28;20025;-84
2022/06/16 08:36:17;;;;;;;1.63;0.40;;;20.80;68.60;;;;;;5032230;28;20042;-85
2022/06/16 08:38:43;;;;;;;1.67;0.40;;;20.90;68.40;;;;;;5032567;28;20493;-84
2022/06/16 08:41:15;;;;;;;1.48;0.35;;;21.00;68.00;;;;;;5032442;28;20033;-83
2022/06/16 08:44:00;;;;;;;2.45;0.40;;;21.10;68.70;;;;;;5032562;28;20060;-85
2022/06/16 08:46:32;;;;;;;2.60;0.40;;;21.30;68.80;;;;;;5032313;28;20135;-83
2022/06/16 08:49:14;;;;;;;1.58;0.40;;;21.40;68.00;;;;;;5032512;28;20082;-84
2022/06/16 08:52:09;;;;;;;1.35;0.38;;;21.50;67.30;;;;;;5032538;28;20025;-84
2022/06/16 08:55:00;;;;;;;1.63;0.40;;;21.50;66.60;;;;;;5032457;28;20057;-85
2022/06/16 08:57:38;;;;;;;6.70;0.73;;;21.60;66.60;;;;;;5032281;28;20037;-84
2022/06/16 09:00:11;;;;;;;1.50;0.30;;;21.60;67.00;;;;;;5032001;28;20440;-84
2022/06/16 09:02:40;;;;;;;1.88;0.30;;;21.70;67.10;;;;;;5032315;28;20056;-84
2022/06/16 09:05:29;;;;;;;2.45;0.30;;;21.70;66.50;;;;;;5032500;28;20025;-84
2022/06/16 09:08:16;;;;;;;3.33;0.40;;;21.90;66.80;;;;;;5032125;28;20017;-85
2022/06/16 09:10:45;;;;;;;1.23;0.30;;;21.90;65.80;;;;;;5032081;28;20096;-85
2022/06/16 09:13:22;;;;;;;2.10;0.40;;;21.90;65.60;;;;;;5032347;28;20553;-85
2022/06/16 09:16:15;;;;;;;2.88;0.55;;;22.00;64.60;;;;;;5032090;28;20472;-84
2022/06/16 09:18:56;;;;;;;3.58;0.40;;;22.00;65.50;;;;;;5014702;28;20033;-84
2022/06/16 09:21:38;;;;;;;3.03;0.63;;;22.10;64.80;;;;;;5029818;28;20103;-84
2022/06/16 09:24:22;;;;;;;;;;;22.10;63.50;;;;;;5016502;28;20076;-84
2022/06/16 09:27:14;;;;;;;1.50;0.40;;;22.00;63.80;;;;;;5016233;28;19911;-84
2022/06/16 09:30:00;;;;;;;1.42;0.30;;;22.00;63.60;;;;;;5015922;28;20080;-84
2022/06/16 09:32:46;;;;;;;3.13;0.70;;;22.10;63.80;;;;;;5015991;28;20136;-84
2022/06/16 09:35:33;;;;;;;2.60;0.50;;;22.10;63.00;;;;;;5015718;28;20045;-84
2022/06/16 09:38:10;;;;;;;2.92;0.43;;;22.20;63.70;;;;;;5015735;28;20124;-84
2022/06/16 09:41:04;;;;;;;3.00;0.32;;;22.20;63.00;;;;;;5015868;28;20030;-84
2022/06/16 09:43:41;;;;;;;4.88;0.70;;;22.40;63.60;;;;;;5011026;28;20375;-84
2022/06/16 09:46:32;;;;;;;2.38;0.50;;;22.60;63.80;;;;;;5016110;28;20055;-84
2022/06/16 09:49:05;;;;;;;4.97;0.55;;;22.60;63.00;;;;;;5013698;28;20034;-84
2022/06/16 09:51:36;;;;;;;3.13;0.63;;;22.70;63.40;;;;;;5015491;28;20042;-84
2022/06/16 09:54:25;;;;;;;1.55;0.50;;;22.90;62.90;;;;;;5015570;28;20068;-85
2022/06/16 09:57:06;;;;;;;4.13;0.68;;;23.00;64.20;;;;;;5015417;28;20104;-85
2022/06/16 09:59:40;;;;;;;3.95;0.77;;;23.10;64.00;;;;;;5015447;28;20022;-84
2022/06/16 10:02:34;;;;;;;2.20;0.68;;;23.20;63.40;;;;;;5015983;28;20026;-85
2022/06/16 10:05:00;;;;;;;1.27;0.40;;;23.20;61.80;;;;;;5015154;28;20026;-84
2022/06/16 10:07:57;;;;;;;2.40;0.55;;;23.10;62.00;;;;;;5015267;28;20474;-84
2022/06/16 10:10:35;;;;;;;4.25;0.40;;;23.10;62.00;;;;;;5015703;28;20034;-84
2022/06/16 10:13:25;;;;;;;2.63;0.52;;;23.10;63.10;;;;;;5015301;28;20116;-84
2022/06/16 10:16:00;;;;;;;3.72;0.50;;;23.30;62.60;;;;;;5014912;28;20068;-84
2022/06/16 10:18:26;;;;;;;4.00;0.60;;;23.30;62.20;;;;;;5015434;28;20036;-84
2022/06/16 10:20:51;;;;;;;8.00;0.85;;;23.30;63.00;;;;;;5015189;28;20474;-83
2022/06/16 10:23:24;;;;;;;2.30;0.55;;;23.50;62.10;;;;;;5014829;28;20079;-84
2022/06/16 10:25:56;;;;;;;4.05;0.70;;;23.50;61.40;;;;;;5014707;28;20022;-83
2022/06/16 10:28:32;;;;;;;3.30;0.63;;;23.50;61.40;;;;;;5016097;28;20097;-85
2022/06/16 10:30:59;;;;;;;2.42;0.50;;;23.50;61.30;;;;;;5014898;28;20030;-84
2022/06/16 10:33:33;;;;;;;1.65;0.45;;;23.50;61.60;;;;;;5014385;28;20021;-85
2022/06/16 10:36:12;;;;;;;5.45;0.70;;;23.50;61.70;;;;;;5014608;28;20050;-84
2022/06/16 10:38:43;;;;;;;3.25;0.68;;;23.60;61.10;;;;;;5031379;28;20029;-84
2022/06/16 10:41:51;;;;;;;3.13;0.43;;;23.60;61.20;;;;;;5014624;28;20168;-84
2022/06/16 10:44:19;;;;;;;2.30;0.50;;;23.70;61.70;;;;;;5030883;28;20100;-84
2022/06/16 10:46:52;;;;;;;2.30;0.60;;;23.80;61.30;;;;;;5015532;28;20471;-84
2022/06/16 10:49:26;;;;;;;2.67;0.80;;;23.80;61.30;;;;;;5015591;28;20081;-84
2022/06/16 10:52:01;;;;;;;2.28;0.40;;;23.90;60.50;;;;;;5014232;28;20083;-84
2022/06/16 10:54:32;;;;;;;3.65;0.47;;;24.00;61.50;;;;;;5014483;28;20030;-83
2022/06/16 10:57:15;;;;;;;5.20;0.60;;;24.00;61.80;;;;;;5015487;28;20038;-83
2022/06/16 11:00:03;;;;;;;3.28;0.50;;;24.10;60.90;;;;;;5015327;28;20030;-84
2022/06/16 11:02:33;;;;;;;6.93;0.65;;;24.00;60.30;;;;;;5014029;28;20034;-84
2022/06/16 11:05:03;;;;;;;1.98;0.50;;;24.00;60.20;;;;;;5013996;28;20022;-84
2022/06/16 11:07:37;;;;;;;3.03;0.50;;;24.10;60.70;;;;;;5030731;28;20502;-84
2022/06/16 11:10:16;;;;;;;3.10;0.50;;;24.20;60.50;;;;;;5014943;28;20147;-83
2022/06/16 11:12:46;;;;;;;2.90;0.70;;;24.40;61.60;;;;;;5014148;28;20033;-84
2022/06/16 11:15:47;;;;;;;1.98;0.60;;;24.50;61.90;;;;;;5014290;28;20028;-84
2022/06/16 11:18:18;;;;;;;1.55;0.40;;;24.70;60.70;;;;;;5005157;28;20390;-84
2022/06/16 11:20:53;;;;;;;1.45;0.50;;;24.60;60.00;;;;;;5030371;28;20022;-84
2022/06/16 11:23:21;;;;;;;3.22;0.50;;;24.60;60.00;;;;;;5030320;28;20161;-85
2022/06/16 11:25:53;;;;;;;3.90;0.98;;;24.60;59.70;;;;;;5014984;28;20022;-85
2022/06/16 11:28:21;;;;;;;1.20;0.52;;;24.80;59.80;;;;;;5015178;28;20054;-84
2022/06/16 11:30:49;;;;;;;2.33;0.60;;;24.90;60.00;;;;;;5014736;28;20032;-84
2022/06/16 11:36:49;;;;;;;3.22;0.60;;;25.10;59.50;;;;;;5032421;28;20179;-84
2022/06/16 11:39:37;;;;;;;2.22;0.50;;;25.10;59.00;;;;;;5033122;28;20021;-83
2022/06/16 11:42:05;;;;;;;3.55;0.80;;;25.10;58.50;;;;;;5033136;28;20021;-83
2022/06/16 11:44:33;;;;;;;2.35;0.52;;;25.00;58.10;;;;;;5032439;28;20029;-84
2022/06/16 11:47:45;;;;;;;1.60;0.60;;;25.00;57.80;;;;;;5033142;28;20021;-85
2022/06/16 11:50:38;;;;;;;1.52;0.40;;;25.00;58.30;;;;;;5033157;28;20091;-84
2022/06/16 11:53:08;;;;;;;2.17;0.57;;;25.10;58.20;;;;;;5033141;28;20432;-84
2022/06/16 11:55:46;;;;;;;2.47;0.40;;;25.10;57.60;;;;;;5032911;28;20026;-84
2022/06/16 11:58:37;;;;;;;3.38;0.68;;;25.10;57.50;;;;;;5032917;28;20033;-85
2022/06/16 12:01:21;;;;;;;2.55;0.57;;;25.20;56.60;;;;;;5033094;28;20477;-84
2022/06/16 12:04:01;;;;;;;3.97;0.60;;;25.30;56.60;;;;;;5032775;28;20037;-83
2022/06/16 12:07:07;;;;;;;3.13;0.50;;;25.20;56.30;;;;;;5032703;28;20526;-84
2022/06/16 12:09:41;;;;;;;3.60;0.40;;;25.10;57.10;;;;;;5033016;28;20029;-86
2022/06/16 12:12:21;;;;;;;1.75;0.50;;;25.10;57.20;;;;;;5032767;28;20026;-84
2022/06/16 12:15:26;;;;;;;3.85;0.50;;;25.10;57.10;;;;;;5051383;28;20115;-84
2022/06/16 12:18:32;;;;;;;2.35;0.80;;;25.20;56.50;;;;;;5036297;28;20037;-85
2022/06/16 12:21:07;;;;;;;6.35;0.50;;;25.20;55.90;;;;;;5052375;28;20028;-83
2022/06/16 12:23:41;;;;;;;1.90;0.50;;;25.30;57.30;;;;;;5036016;28;20031;-85
2022/06/16 12:26:16;;;;;;;2.08;0.40;;;25.50;57.70;;;;;;5035968;28;20033;-84
2022/06/16 12:29:00;;;;;;;2.83;0.80;;;25.80;57.50;;;;;;5053708;28;20041;-86
2022/06/16 12:31:52;;;;;;;3.58;0.60;;;25.90;56.80;;;;;;5036067;28;20417;-85
2022/06/16 12:34:32;;;;;;;2.50;0.45;;;25.90;56.20;;;;;;5042577;28;20047;-84
2022/06/16 12:37:08;;;;;;;1.98;0.50;;;25.90;54.90;;;;;;5054019;28;20064;-85
2022/06/16 12:39:58;;;;;;;1.92;0.50;;;25.70;54.90;;;;;;5035549;28;20600;-84
2022/06/16 12:42:28;;;;;;;1.95;0.30;;;25.50;55.30;;;;;;5035840;28;20017;-84
2022/06/16 12:45:17;;;;;;;1.63;0.50;;;25.40;55.50;;;;;;5035862;28;20071;-84
2022/06/16 12:48:01;;;;;;;2.08;0.50;;;25.20;56.20;;;;;;5035559;28;20017;-84
2022/06/16 12:50:35;;;;;;;2.17;0.57;;;25.20;56.40;;;;;;5035986;28;20029;-84
2022/06/16 12:53:15;;;;;;;3.17;0.55;;;25.30;56.00;;;;;;5053473;28;20029;-84
2022/06/16 12:55:57;;;;;;;4.35;0.82;;;25.50;56.10;;;;;;5036772;28;20428;-84
2022/06/16 12:58:24;;;;;;;;;;;25.60;55.20;;;;;;5057635;28;20108;-84
2022/06/16 13:00:54;;;;;;;2.47;0.40;;;25.70;55.60;;;;;;5057317;28;19912;-84
2022/06/16 13:03:28;;;;;;;1.95;0.40;;;25.90;55.30;;;;;;5039780;28;20502;-84
2022/06/16 13:05:57;;;;;;;2.45;0.50;;;26.20;55.10;;;;;;5039258;28;20028;-84
2022/06/16 13:08:25;;;;;;;1.38;0.50;;;26.30;55.10;;;;;;5039555;28;20029;-84
2022/06/16 13:10:57;;;;;;;3.33;0.52;;;26.30;55.20;;;;;;5039541;28;20029;-84
2022/06/16 13:13:27;;;;;;;2.45;0.60;;;26.40;55.60;;;;;;5020849;28;20025;-85
2022/06/16 13:15:55;;;;;;;2.53;0.45;;;26.70;55.80;;;;;;5019180;28;20029;-84
2022/06/16 13:18:25;;;;;;;3.28;0.60;;;26.70;54.50;;;;;;5019341;28;20401;-84
2022/06/16 13:21:01;;;;;;;4.10;0.50;;;26.60;53.90;;;;;;5019622;28;20032;-85
2022/06/16 13:23:45;;;;;;;1.77;0.50;;;26.60;53.80;;;;;;5019420;28;20021;-84
2022/06/16 13:26:27;;;;;;;1.30;0.40;;;27.00;53.80;;;;;;5019448;28;20474;-85
2022/06/16 13:29:00;;;;;;;1.85;0.50;;;27.40;52.70;;;;;;5019489;28;20504;-85
2022/06/16 13:31:47;;;;;;;3.60;0.70;;;27.50;53.10;;;;;;5019335;28;20030;-85
2022/06/16 13:34:49;;;;;;;0.90;0.40;;;27.70;52.50;;;;;;5018795;28;20433;-84
2022/06/16 13:37:38;;;;;;;1.52;0.50;;;27.80;52.30;;;;;;5019193;28;20044;-85
2022/06/16 13:40:07;;;;;;;4.78;0.50;;;27.70;52.20;;;;;;5035584;28;20021;-85
2022/06/16 13:42:56;;;;;;;1.75;0.50;;;27.50;52.70;;;;;;5035435;28;20033;-85
2022/06/16 13:45:31;;;;;;;3.92;0.50;;;27.60;52.20;;;;;;5036771;28;20205;-85
2022/06/16 13:48:16;;;;;;;1.77;0.50;;;27.70;52.40;;;;;;5035418;28;20094;-85